Aviation Digital Data Service (ADDS)

Output produced by METARs form (0517 UTC 19 February 2019)
found at http://www.aviationweather.gov/metar/data/
 
Forecast for: VTUL (LOEI , TH)
Text: TAF VTUL 182300Z 1900/1924 VRB02KT 2000 BR NSC
Forecast period: 0000 to 0200 UTC 19 February 2019
Forecast type: FROM: standard forecast or significant change
Winds: variable direction winds at 2 MPH (2 knots; 1.0 m/s)
Visibility: 1.24 miles (2.00 km)
Ceiling: unknown
Clouds: missing
Weather: BR  (mist)
Text: BECMG 1902/1904 26003KT 5000 HZ
Forecast period: 0200 to 0600 UTC 19 February 2019
Forecast type: BECOMING: Conditions expected to become as follows by 0400 UTC 19 February 2019
Winds: from the W (260 degrees) at 3 MPH (3 knots; 1.5 m/s)
Visibility: 3 miles (5 km)
Ceiling: unknown
Clouds: missing
Weather: HZ  (haze)
Text: BECMG 1906/1908 9000 NSW
Forecast period: 0600 UTC 19 February 2019 to 0000 UTC 20 February 2019
Forecast type: BECOMING: Conditions expected to become as follows by 0800 UTC 19 February 2019
Winds: from the W (260 degrees) at 3 MPH (3 knots; 1.5 m/s)
Visibility: 6 miles (9 km)
Ceiling: unknown
Clouds: missing
Weather: NSW  (no significant weather)